Time,TemperatureF,DewpointF,PressureIn,WindDirection,WindDirectionDegrees,WindSpeedMPH,WindSpeedGustMPH,Humidity,HourlyPrecipIn,Conditions,Clouds,dailyrainin,SoftwareType,DateUTC
2013-06-12 00:59:00,75.5,75.5,30.04,WNW,283,0.0,0.0,100,0.00,,,0.00,Meteorologica,2013-06-12 04:59:00,
2013-06-12 01:00:00,78.5,76.7,29.99,SSW,213,3.3,5.5,94,0.00,,,0.00,Meteorologica,2013-06-12 05:00:00,
2013-06-12 01:01:00,78.5,76.7,29.99,SSW,207,3.1,5.5,94,0.00,,,0.00,Meteorologica,2013-06-12 05:01:00,
2013-06-12 01:02:00,78.8,76.9,29.99,SW,220,3.0,5.5,94,0.00,,,0.00,Meteorologica,2013-06-12 05:02:00,
2013-06-12 01:03:00,78.7,76.7,29.99,SSW,206,1.7,5.5,93,0.00,,,0.00,Meteorologica,2013-06-12 05:03:00,
2013-06-12 01:04:00,75.7,75.7,30.04,WNW,283,0.0,0.0,100,0.00,,,0.00,Meteorologica,2013-06-12 05:04:00,
2013-06-12 01:05:00,78.7,76.7,29.99,SSW,198,2.6,6.0,93,0.00,,,0.00,Meteorologica,2013-06-12 05:05:00,
2013-06-12 01:06:00,78.7,76.6,29.99,SSW,198,2.0,6.0,93,0.00,,,0.00,Meteorologica,2013-06-12 05:06:00,
2013-06-12 01:07:00,78.7,76.5,29.99,South,175,2.7,6.0,93,0.00,,,0.00,Meteorologica,2013-06-12 05:07:00,
2013-06-12 01:08:00,78.7,76.5,29.99,SSE,166,2.6,6.0,92,0.00,,,0.00,Meteorologica,2013-06-12 05:08:00,
2013-06-12 01:09:00,75.6,75.6,30.04,WNW,283,0.0,0.0,100,0.00,,,0.00,Meteorologica,2013-06-12 05:09:00,
2013-06-12 01:10:00,78.7,76.4,29.99,SW,222,3.4,5.1,92,0.00,,,0.00,Meteorologica,2013-06-12 05:10:00,
2013-06-12 01:11:00,78.7,76.3,29.99,SW,216,2.9,5.1,92,0.00,,,0.00,Meteorologica,2013-06-12 05:11:00,
2013-06-12 01:12:00,78.9,76.6,29.99,SSW,201,3.5,5.1,92,0.00,,,0.00,Meteorologica,2013-06-12 05:12:00,
2013-06-12 01:13:00,78.8,76.4,29.99,West,263,2.9,5.1,92,0.00,,,0.00,Meteorologica,2013-06-12 05:13:00,
2013-06-12 01:14:00,78.8,76.3,29.99,South,189,3.5,5.1,92,0.00,,,0.00,Meteorologica,2013-06-12 05:14:00,
2013-06-12 01:15:00,75.4,75.4,30.04,WNW,283,0.0,0.0,100,0.00,,,0.00,Meteorologica,2013-06-12 05:15:00,
2013-06-12 01:16:00,78.8,76.3,29.99,SSW,201,2.3,5.6,92,0.00,,,0.00,Meteorologica,2013-06-12 05:16:00,
2013-06-12 01:17:00,78.8,76.3,29.99,SSW,204,2.3,5.6,92,0.00,,,0.00,Meteorologica,2013-06-12 05:17:00,
2013-06-12 01:18:00,78.8,76.3,29.99,SSW,194,3.3,5.6,92,0.00,,,0.00,Meteorologica,2013-06-12 05:18:00,
2013-06-12 01:19:00,78.8,76.3,29.99,South,188,2.5,5.6,92,0.00,,,0.00,Meteorologica,2013-06-12 05:19:00,
2013-06-12 01:20:00,75.2,75.2,30.04,WNW,283,0.0,0.0,100,0.00,,,0.00,Meteorologica,2013-06-12 05:20:00,
2013-06-12 01:21:00,78.8,76.2,29.99,SSW,206,2.8,5.6,91,0.00,,,0.00,Meteorologica,2013-06-12 05:21:00,
2013-06-12 01:22:00,78.9,76.3,29.99,SW,218,4.1,5.6,91,0.00,,,0.00,Meteorologica,2013-06-12 05:22:00,
2013-06-12 01:23:00,78.7,76.1,29.99,SSW,192,2.6,5.6,91,0.00,,,0.00,Meteorologica,2013-06-12 05:23:00,
2013-06-12 01:24:00,78.9,76.3,29.99,South,184,3.3,5.6,91,0.00,,,0.00,Meteorologica,2013-06-12 05:24:00,
2013-06-12 01:25:00,75.1,75.1,30.04,WNW,283,0.0,0.0,100,0.00,,,0.00,Meteorologica,2013-06-12 05:25:00,
2013-06-12 01:26:00,78.9,76.3,29.99,SW,222,2.7,6.1,91,0.00,,,0.00,Meteorologica,2013-06-12 05:26:00,
2013-06-12 01:27:00,78.7,76.1,29.99,South,186,1.9,6.1,91,0.00,,,0.00,Meteorologica,2013-06-12 05:27:00,
2013-06-12 01:28:00,78.9,76.4,29.99,SSW,192,2.9,6.1,92,0.00,,,0.00,Meteorologica,2013-06-12 05:28:00,
2013-06-12 01:29:00,78.8,76.2,29.99,South,175,2.4,6.1,91,0.00,,,0.00,Meteorologica,2013-06-12 05:29:00,
2013-06-12 01:30:00,78.8,76.2,29.99,SSW,200,1.0,5.2,91,0.00,,,0.00,Meteorologica,2013-06-12 05:30:00,
2013-06-12 01:31:00,75.0,75.0,30.04,WNW,283,0.0,0.0,100,0.00,,,0.00,Meteorologica,2013-06-12 05:31:00,
2013-06-12 01:32:00,78.8,76.3,29.99,SSW,195,1.6,5.2,92,0.00,,,0.00,Meteorologica,2013-06-12 05:32:00,
2013-06-12 01:33:00,78.8,76.1,29.99,SSW,198,2.9,5.2,91,0.00,,,0.00,Meteorologica,2013-06-12 05:33:00,
2013-06-12 01:34:00,78.7,76.0,29.99,WSW,238,2.6,5.2,91,0.00,,,0.00,Meteorologica,2013-06-12 05:34:00,
2013-06-12 01:35:00,78.8,76.1,29.99,SW,229,1.5,4.2,91,0.00,,,0.00,Meteorologica,2013-06-12 05:35:00,
2013-06-12 01:36:00,75.0,75.0,30.04,WNW,283,0.0,0.0,100,0.00,,,0.00,Meteorologica,2013-06-12 05:36:00,
2013-06-12 01:37:00,78.8,76.1,29.99,SSW,200,2.1,4.2,91,0.00,,,0.00,Meteorologica,2013-06-12 05:37:00,
2013-06-12 01:38:00,78.8,76.1,29.99,South,177,1.7,4.2,91,0.00,,,0.00,Meteorologica,2013-06-12 05:38:00,
2013-06-12 01:39:00,78.7,76.0,29.99,South,183,2.0,4.2,91,0.00,,,0.00,Meteorologica,2013-06-12 05:39:00,
2013-06-12 01:40:00,78.8,76.1,29.99,SSW,199,2.0,4.0,91,0.00,,,0.00,Meteorologica,2013-06-12 05:40:00,
2013-06-12 01:41:00,75.1,75.1,30.04,WNW,283,0.0,0.0,100,0.00,,,0.00,Meteorologica,2013-06-12 05:41:00,
2013-06-12 01:42:00,78.5,75.7,29.99,SW,215,3.0,4.0,91,0.00,,,0.00,Meteorologica,2013-06-12 05:42:00,
2013-06-12 01:43:00,78.5,75.6,29.99,South,172,3.5,4.0,91,0.00,,,0.00,Meteorologica,2013-06-12 05:43:00,
2013-06-12 01:44:00,78.5,75.6,29.98,SSW,211,1.8,4.0,91,0.00,,,0.00,Meteorologica,2013-06-12 05:44:00,
2013-06-12 01:45:00,78.7,75.9,29.98,South,169,2.7,5.6,91,0.00,,,0.00,Meteorologica,2013-06-12 05:45:00,
2013-06-12 01:46:00,75.0,75.0,30.04,WNW,283,0.0,0.0,100,0.00,,,0.00,Meteorologica,2013-06-12 05:46:00,
2013-06-12 01:47:00,78.7,75.9,29.98,SSW,196,3.0,5.6,91,0.00,,,0.00,Meteorologica,2013-06-12 05:47:00,
2013-06-12 01:48:00,78.5,75.5,29.98,SSE,163,1.7,5.6,90,0.00,,,0.00,Meteorologica,2013-06-12 05:48:00,
2013-06-12 01:49:00,78.5,75.5,29.98,SSW,209,1.9,5.6,90,0.00,,,0.00,Meteorologica,2013-06-12 05:49:00,
2013-06-12 01:50:00,78.4,75.4,29.98,WSW,241,3.4,5.1,90,0.00,,,0.00,Meteorologica,2013-06-12 05:50:00,
2013-06-12 01:51:00,74.8,74.8,30.04,WNW,283,0.0,0.0,100,0.00,,,0.00,Meteorologica,2013-06-12 05:51:00,
2013-06-12 01:52:00,78.4,75.2,29.98,SSW,196,4.2,5.1,89,0.00,,,0.00,Meteorologica,2013-06-12 05:52:00,
2013-06-12 01:53:00,78.4,75.2,29.98,South,182,2.8,5.1,90,0.00,,,0.00,Meteorologica,2013-06-12 05:53:00,
2013-06-12 01:54:00,78.4,75.1,29.98,SW,231,3.6,5.1,89,0.00,,,0.00,Meteorologica,2013-06-12 05:54:00,
2013-06-12 01:55:00,78.4,75.1,29.98,SSW,210,2.0,7.0,89,0.00,,,0.00,Meteorologica,2013-06-12 05:55:00,
2013-06-12 01:56:00,74.8,74.8,30.04,WNW,283,0.0,0.0,100,0.00,,,0.00,Meteorologica,2013-06-12 05:56:00,
2013-06-12 01:57:00,78.4,75.0,29.98,SW,216,2.9,7.0,89,0.00,,,0.00,Meteorologica,2013-06-12 05:57:00,
2013-06-12 01:58:00,78.3,74.8,29.98,South,191,2.6,7.0,89,0.00,,,0.00,Meteorologica,2013-06-12 05:58:00,
2013-06-12 01:59:00,78.4,74.8,29.98,SSW,193,2.9,7.0,88,0.00,,,0.00,Meteorologica,2013-06-12 05:59:00,
2013-06-12 02:01:00,74.8,74.8,30.04,WNW,283,0.0,0.0,100,0.00,,,0.00,Meteorologica,2013-06-12 06:01:00,
2013-06-12 02:07:00,74.7,74.7,30.04,WNW,283,0.0,0.0,100,0.00,,,0.00,Meteorologica,2013-06-12 06:07:00,
2013-06-12 02:12:00,74.6,74.6,30.04,WNW,283,0.0,0.0,100,0.00,,,0.00,Meteorologica,2013-06-12 06:12:00,
2013-06-12 02:17:00,74.6,74.6,30.04,WNW,283,0.0,0.0,100,0.00,,,0.00,Meteorologica,2013-06-12 06:17:00,
2013-06-12 02:22:00,74.3,74.3,30.04,WNW,283,0.0,0.0,100,0.00,,,0.00,Meteorologica,2013-06-12 06:22:00,
2013-06-12 02:27:00,74.3,74.3,30.04,WNW,283,0.0,0.0,100,0.00,,,0.00,Meteorologica,2013-06-12 06:27:00,
2013-06-12 02:33:00,74.2,74.2,30.04,WNW,283,0.0,0.0,100,0.00,,,0.00,Meteorologica,2013-06-12 06:33:00,
2013-06-12 02:38:00,74.1,74.1,30.05,WNW,283,0.0,0.0,100,0.00,,,0.00,Meteorologica,2013-06-12 06:38:00,
2013-06-12 02:43:00,74.0,74.0,30.05,WNW,283,0.0,0.0,100,0.00,,,0.00,Meteorologica,2013-06-12 06:43:00,
2013-06-12 02:48:00,73.9,73.9,30.05,WNW,283,0.0,0.0,100,0.00,,,0.00,Meteorologica,2013-06-12 06:48:00,
2013-06-12 02:54:00,74.0,74.0,30.05,WNW,283,0.0,0.0,100,0.00,,,0.00,Meteorologica,2013-06-12 06:54:00,
2013-06-12 02:59:00,73.8,73.8,30.04,WNW,283,0.0,0.0,100,0.00,,,0.00,Meteorologica,2013-06-12 06:59:00,
2013-06-12 03:04:00,73.8,73.8,30.04,WNW,283,0.0,0.0,100,0.00,,,0.00,Meteorologica,2013-06-12 07:04:00,
2013-06-12 03:09:00,73.8,73.8,30.04,WNW,283,0.0,0.0,100,0.00,,,0.00,Meteorologica,2013-06-12 07:09:00,
2013-06-12 03:14:00,73.6,73.6,30.04,WNW,283,0.0,0.0,100,0.00,,,0.00,Meteorologica,2013-06-12 07:14:00,
2013-06-12 03:19:00,73.4,73.4,30.04,WNW,283,0.0,0.0,100,0.00,,,0.00,Meteorologica,2013-06-12 07:19:00,
2013-06-12 03:24:00,73.4,73.4,30.03,WNW,283,0.0,0.0,100,0.00,,,0.00,Meteorologica,2013-06-12 07:24:00,
2013-06-12 03:29:00,73.3,73.3,30.03,WNW,283,0.0,0.0,100,0.00,,,0.00,Meteorologica,2013-06-12 07:29:00,
2013-06-12 03:35:00,73.2,73.2,30.03,WNW,283,0.0,0.0,100,0.00,,,0.00,Meteorologica,2013-06-12 07:35:00,
2013-06-12 03:41:00,73.1,73.1,30.03,WNW,283,0.0,0.0,100,0.00,,,0.00,Meteorologica,2013-06-12 07:41:00,
2013-06-12 03:46:00,73.0,73.0,30.03,WNW,283,0.0,0.0,100,0.00,,,0.00,Meteorologica,2013-06-12 07:46:00,
2013-06-12 03:51:00,73.1,73.1,30.03,WNW,283,0.0,0.0,100,0.00,,,0.00,Meteorologica,2013-06-12 07:51:00,
2013-06-12 03:56:00,73.1,73.1,30.03,WNW,283,0.0,0.0,100,0.00,,,0.00,Meteorologica,2013-06-12 07:56:00,
2013-06-12 04:01:00,72.8,72.8,30.03,WNW,283,0.0,0.0,100,0.00,,,0.00,Meteorologica,2013-06-12 08:01:00,
2013-06-12 04:07:00,73.0,73.0,30.03,WNW,283,0.0,0.0,100,0.00,,,0.00,Meteorologica,2013-06-12 08:07:00,
2013-06-12 04:12:00,72.8,72.8,30.03,WNW,283,0.0,0.0,100,0.00,,,0.00,Meteorologica,2013-06-12 08:12:00,
2013-06-12 04:17:00,72.8,72.8,30.03,WNW,283,0.0,0.0,100,0.00,,,0.00,Meteorologica,2013-06-12 08:17:00,
2013-06-12 04:23:00,72.8,72.8,30.03,WNW,283,0.0,0.0,100,0.00,,,0.00,Meteorologica,2013-06-12 08:23:00,
2013-06-12 04:28:00,72.7,72.7,30.04,WNW,283,0.0,0.0,100,0.00,,,0.00,Meteorologica,2013-06-12 08:28:00,
2013-06-12 04:33:00,72.8,72.8,30.04,WNW,283,0.0,0.0,100,0.00,,,0.00,Meteorologica,2013-06-12 08:33:00,
2013-06-12 04:38:00,72.8,72.8,30.04,WNW,283,0.0,0.0,100,0.00,,,0.00,Meteorologica,2013-06-12 08:38:00,
2013-06-12 04:44:00,72.8,72.8,30.04,WNW,283,0.0,0.0,100,0.00,,,0.00,Meteorologica,2013-06-12 08:44:00,
2013-06-12 04:49:00,72.6,72.6,30.04,WNW,283,0.0,0.0,100,0.00,,,0.00,Meteorologica,2013-06-12 08:49:00,
2013-06-12 04:54:00,72.6,72.6,30.04,WNW,283,0.0,0.0,100,0.00,,,0.00,Meteorologica,2013-06-12 08:54:00,
2013-06-12 04:59:00,72.7,72.7,30.04,WNW,283,0.0,0.0,100,0.00,,,0.00,Meteorologica,2013-06-12 08:59:00,
2013-06-12 05:05:00,72.7,72.7,30.04,WNW,283,0.0,0.0,100,0.00,,,0.00,Meteorologica,2013-06-12 09:05:00,
2013-06-12 05:10:00,72.7,72.7,30.04,WNW,283,0.0,0.0,100,0.00,,,0.00,Meteorologica,2013-06-12 09:10:00,
2013-06-12 05:15:00,72.6,72.6,30.04,WNW,283,0.0,0.0,100,0.00,,,0.00,Meteorologica,2013-06-12 09:15:00,
2013-06-12 05:20:00,72.7,72.7,30.04,WNW,283,0.0,0.0,100,0.00,,,0.00,Meteorologica,2013-06-12 09:20:00,
2013-06-12 05:25:00,72.6,72.6,30.04,WNW,283,0.0,0.0,100,0.00,,,0.00,Meteorologica,2013-06-12 09:25:00,
2013-06-12 05:31:00,72.8,72.8,30.04,WNW,283,0.0,0.0,100,0.00,,,0.00,Meteorologica,2013-06-12 09:31:00,
2013-06-12 05:36:00,72.6,72.6,30.04,WNW,283,0.0,0.0,100,0.00,,,0.00,Meteorologica,2013-06-12 09:36:00,
2013-06-12 05:41:00,72.7,72.7,30.04,WNW,283,0.0,0.0,100,0.00,,,0.00,Meteorologica,2013-06-12 09:41:00,
2013-06-12 05:47:00,72.7,72.7,30.04,WNW,283,0.0,0.0,100,0.00,,,0.00,Meteorologica,2013-06-12 09:47:00,
2013-06-12 05:52:00,72.6,72.6,30.04,WNW,283,0.0,0.0,100,0.00,,,0.00,Meteorologica,2013-06-12 09:52:00,
2013-06-12 05:57:00,72.6,72.6,30.04,WNW,283,0.0,0.0,100,0.00,,,0.00,Meteorologica,2013-06-12 09:57:00,
2013-06-12 06:03:00,72.6,72.6,30.04,WNW,283,0.0,0.0,100,0.00,,,0.00,Meteorologica,2013-06-12 10:03:00,
2013-06-12 06:08:00,72.9,72.9,30.04,WNW,283,0.0,0.0,100,0.00,,,0.00,Meteorologica,2013-06-12 10:08:00,
2013-06-12 06:13:00,72.5,72.5,30.04,WNW,283,0.0,0.0,100,0.00,,,0.00,Meteorologica,2013-06-12 10:13:00,
2013-06-12 06:18:00,72.5,72.5,30.05,WNW,283,0.0,0.0,100,0.00,,,0.00,Meteorologica,2013-06-12 10:18:00,
2013-06-12 06:24:00,72.5,72.5,30.05,WNW,283,0.0,0.0,100,0.00,,,0.00,Meteorologica,2013-06-12 10:24:00,
2013-06-12 06:29:00,72.5,72.5,30.05,WNW,283,0.0,0.0,100,0.00,,,0.00,Meteorologica,2013-06-12 10:29:00,
2013-06-12 06:34:00,72.6,72.6,30.06,WNW,283,0.0,0.0,100,0.00,,,0.00,Meteorologica,2013-06-12 10:34:00,
2013-06-12 06:39:00,72.5,72.5,30.06,WNW,283,0.0,0.0,100,0.00,,,0.00,Meteorologica,2013-06-12 10:39:00,
2013-06-12 06:44:00,72.4,72.4,30.06,WNW,283,0.0,0.0,100,0.00,,,0.00,Meteorologica,2013-06-12 10:44:00,
2013-06-12 06:49:00,72.5,72.5,30.06,WNW,283,0.0,0.0,100,0.00,,,0.00,Meteorologica,2013-06-12 10:49:00,
2013-06-12 06:55:00,72.6,72.6,30.06,WNW,283,0.0,0.0,100,0.00,,,0.00,Meteorologica,2013-06-12 10:55:00,
2013-06-12 07:00:00,72.5,72.5,30.06,WNW,283,0.0,0.0,100,0.00,,,0.00,Meteorologica,2013-06-12 11:00:00,
2013-06-12 07:05:00,72.5,72.5,30.06,WNW,283,0.0,0.0,100,0.00,,,0.00,Meteorologica,2013-06-12 11:05:00,
2013-06-12 07:10:00,72.6,72.6,30.06,SSE,155,0.0,0.6,100,0.00,,,0.00,Meteorologica,2013-06-12 11:10:00,
2013-06-12 07:15:00,72.7,72.7,30.06,SSE,155,0.0,0.0,100,0.00,,,0.00,Meteorologica,2013-06-12 11:15:00,
2013-06-12 07:20:00,72.7,72.7,30.06,SSE,155,0.0,0.2,100,0.00,,,0.00,Meteorologica,2013-06-12 11:20:00,
2013-06-12 07:25:00,73.0,73.0,30.06,SSE,165,0.0,0.0,100,0.00,,,0.00,Meteorologica,2013-06-12 11:25:00,
2013-06-12 07:30:00,72.9,72.9,30.07,SW,217,0.0,1.3,100,0.00,,,0.00,Meteorologica,2013-06-12 11:30:00,
2013-06-12 07:35:00,73.0,73.0,30.07,SSW,199,0.0,0.4,100,0.00,,,0.00,Meteorologica,2013-06-12 11:35:00,
2013-06-12 07:40:00,73.2,73.2,30.07,South,175,0.6,0.0,100,0.00,,,0.00,Meteorologica,2013-06-12 11:40:00,
2013-06-12 07:45:00,73.3,73.3,30.07,SSE,152,0.1,2.1,100,0.00,,,0.00,Meteorologica,2013-06-12 11:45:00,
2013-06-12 07:50:00,73.5,73.5,30.07,SSE,152,0.0,1.9,100,0.00,,,0.00,Meteorologica,2013-06-12 11:50:00,
2013-06-12 07:55:00,73.8,73.8,30.07,ESE,121,0.6,1.4,100,0.00,,,0.00,Meteorologica,2013-06-12 11:55:00,
2013-06-12 08:01:00,73.8,73.8,30.07,ENE,73,0.0,2.1,100,0.00,,,0.00,Meteorologica,2013-06-12 12:01:00,
2013-06-12 08:06:00,74.0,74.0,30.07,WSW,247,0.1,3.0,100,0.00,,,0.00,Meteorologica,2013-06-12 12:06:00,
2013-06-12 08:11:00,74.1,74.1,30.07,WSW,247,0.1,2.1,100,0.00,,,0.00,Meteorologica,2013-06-12 12:11:00,
2013-06-12 08:16:00,74.4,74.4,30.07,SW,218,1.2,1.6,100,0.00,,,0.00,Meteorologica,2013-06-12 12:16:00,
2013-06-12 08:21:00,74.6,74.6,30.07,SSW,211,0.0,5.1,100,0.00,,,0.00,Meteorologica,2013-06-12 12:21:00,
2013-06-12 08:26:00,74.8,74.8,30.08,SSW,211,0.0,0.0,100,0.00,,,0.00,Meteorologica,2013-06-12 12:26:00,
2013-06-12 08:32:00,74.9,74.9,30.08,SSE,155,0.0,0.6,100,0.00,,,0.00,Meteorologica,2013-06-12 12:32:00,
2013-06-12 08:37:00,75.0,75.0,30.08,SSE,153,0.6,0.0,100,0.00,,,0.00,Meteorologica,2013-06-12 12:37:00,
2013-06-12 08:42:00,75.4,75.4,30.08,SSW,207,1.2,1.6,100,0.00,,,0.00,Meteorologica,2013-06-12 12:42:00,
2013-06-12 08:47:00,75.6,75.6,30.09,South,188,1.3,3.1,100,0.00,,,0.00,Meteorologica,2013-06-12 12:47:00,
2013-06-12 08:52:00,75.5,75.5,30.09,SE,124,0.0,2.7,100,0.00,,,0.00,Meteorologica,2013-06-12 12:52:00,
2013-06-12 08:57:00,75.8,75.8,30.09,South,191,0.0,0.0,100,0.00,,,0.00,Meteorologica,2013-06-12 12:57:00,
2013-06-12 09:02:00,75.9,75.9,30.09,South,190,1.3,1.3,100,0.00,,,0.00,Meteorologica,2013-06-12 13:02:00,
2013-06-12 09:07:00,76.1,76.1,30.09,South,183,0.0,2.5,100,0.00,,,0.00,Meteorologica,2013-06-12 13:07:00,
2013-06-12 09:12:00,76.2,76.2,30.09,South,183,0.0,1.1,100,0.00,,,0.00,Meteorologica,2013-06-12 13:12:00,
2013-06-12 09:17:00,76.4,76.4,30.09,SE,131,0.9,0.0,100,0.00,,,0.00,Meteorologica,2013-06-12 13:17:00,
2013-06-12 09:22:00,76.6,76.6,30.10,South,175,0.5,1.4,100,0.00,,,0.00,Meteorologica,2013-06-12 13:22:00,
2013-06-12 09:27:00,76.8,76.8,30.09,East,101,0.8,3.0,100,0.00,,,0.00,Meteorologica,2013-06-12 13:27:00,
2013-06-12 09:32:00,76.9,76.9,30.10,South,170,1.3,4.0,100,0.00,,,0.00,Meteorologica,2013-06-12 13:32:00,
2013-06-12 09:37:00,77.1,77.1,30.09,South,175,2.0,2.6,100,0.00,,,0.00,Meteorologica,2013-06-12 13:37:00,
2013-06-12 09:42:00,77.3,77.3,30.09,South,176,0.0,3.0,100,0.00,,,0.00,Meteorologica,2013-06-12 13:42:00,
2013-06-12 09:48:00,77.4,77.4,30.09,West,273,0.0,1.9,100,0.00,,,0.00,Meteorologica,2013-06-12 13:48:00,
2013-06-12 09:53:00,77.7,77.7,30.09,West,279,1.3,1.4,100,0.00,,,0.00,Meteorologica,2013-06-12 13:53:00,
2013-06-12 09:58:00,77.9,77.9,30.09,West,263,0.0,2.4,100,0.00,,,0.00,Meteorologica,2013-06-12 13:58:00,
2013-06-12 10:03:00,78.0,78.0,30.09,West,276,1.1,0.0,100,0.00,,,0.00,Meteorologica,2013-06-12 14:03:00,
2013-06-12 10:08:00,78.2,78.2,30.09,West,280,1.6,2.8,100,0.00,,,0.00,Meteorologica,2013-06-12 14:08:00,
2013-06-12 10:13:00,78.5,78.5,30.09,SE,132,0.1,3.2,100,0.00,,,0.00,Meteorologica,2013-06-12 14:13:00,
2013-06-12 10:18:00,78.8,78.8,30.09,SW,223,0.7,2.8,100,0.00,,,0.00,Meteorologica,2013-06-12 14:18:00,
2013-06-12 10:23:00,78.9,78.9,30.09,SSW,201,0.9,1.3,100,0.00,,,0.00,Meteorologica,2013-06-12 14:23:00,
2013-06-12 10:28:00,79.1,79.1,30.09,WSW,239,0.0,2.1,100,0.00,,,0.00,Meteorologica,2013-06-12 14:28:00,
2013-06-12 10:33:00,79.2,79.2,30.10,West,275,0.4,2.4,100,0.00,,,0.00,Meteorologica,2013-06-12 14:33:00,
2013-06-12 10:39:00,79.4,79.4,30.10,West,275,0.0,0.0,100,0.00,,,0.00,Meteorologica,2013-06-12 14:39:00,
2013-06-12 10:44:00,79.5,79.5,30.10,WSW,241,0.1,2.1,100,0.00,,,0.00,Meteorologica,2013-06-12 14:44:00,
2013-06-12 10:49:00,79.7,79.7,30.10,South,180,1.2,3.0,100,0.00,,,0.00,Meteorologica,2013-06-12 14:49:00,
2013-06-12 10:54:00,79.9,79.9,30.10,South,187,0.3,2.4,100,0.00,,,0.00,Meteorologica,2013-06-12 14:54:00,
2013-06-12 10:59:00,80.1,80.1,30.10,South,187,0.0,0.0,100,0.00,,,0.00,Meteorologica,2013-06-12 14:59:00,
2013-06-12 11:04:00,80.3,80.3,30.10,WNW,293,0.0,2.4,100,0.00,,,0.00,Meteorologica,2013-06-12 15:04:00,
2013-06-12 11:10:00,80.4,80.4,30.10,WSW,244,0.0,2.0,100,0.00,,,0.00,Meteorologica,2013-06-12 15:10:00,
2013-06-12 11:15:00,80.4,80.4,30.10,SSW,203,0.2,1.7,100,0.00,,,0.00,Meteorologica,2013-06-12 15:15:00,
2013-06-12 11:20:00,80.6,80.6,30.10,SW,230,0.3,3.9,100,0.00,,,0.00,Meteorologica,2013-06-12 15:20:00,
2013-06-12 11:25:00,80.7,80.7,30.10,SW,232,0.3,2.3,100,0.00,,,0.00,Meteorologica,2013-06-12 15:25:00,
2013-06-12 11:30:00,80.8,80.8,30.11,NNE,15,0.8,3.1,100,0.00,,,0.00,Meteorologica,2013-06-12 15:30:00,
2013-06-12 11:35:00,80.8,80.8,30.10,SSE,155,0.0,2.0,100,0.00,,,0.00,Meteorologica,2013-06-12 15:35:00,
2013-06-12 11:40:00,80.8,80.8,30.10,SSE,155,0.0,0.0,100,0.00,,,0.00,Meteorologica,2013-06-12 15:40:00,
2013-06-12 11:45:00,81.0,81.0,30.11,SSE,155,0.0,0.0,100,0.00,,,0.00,Meteorologica,2013-06-12 15:45:00,
2013-06-12 11:51:00,80.9,80.9,30.11,South,175,0.5,0.0,100,0.00,,,0.00,Meteorologica,2013-06-12 15:51:00,
2013-06-12 11:56:00,81.0,81.0,30.10,SSE,167,0.0,1.2,100,0.00,,,0.00,Meteorologica,2013-06-12 15:56:00,
2013-06-12 12:01:00,81.0,81.0,30.11,SSE,167,0.0,0.6,100,0.00,,,0.00,Meteorologica,2013-06-12 16:01:00,
2013-06-12 12:06:00,81.4,81.4,30.11,SW,231,0.3,2.5,100,0.00,,,0.00,Meteorologica,2013-06-12 16:06:00,
2013-06-12 12:11:00,81.5,81.5,30.11,ENE,64,0.5,1.2,100,0.00,,,0.00,Meteorologica,2013-06-12 16:11:00,
2013-06-12 12:16:00,81.6,81.5,30.11,ENE,64,0.0,2.0,99,0.00,,,0.00,Meteorologica,2013-06-12 16:16:00,
2013-06-12 12:21:00,81.5,80.3,30.11,ENE,64,0.0,0.0,96,0.00,,,0.00,Meteorologica,2013-06-12 16:21:00,
2013-06-12 12:26:00,81.5,80.0,30.11,ENE,64,0.0,0.0,95,0.00,,,0.00,Meteorologica,2013-06-12 16:26:00,
2013-06-12 12:31:00,81.9,80.2,30.11,ENE,64,0.0,0.0,94,0.00,,,0.00,Meteorologica,2013-06-12 16:31:00,
2013-06-12 12:37:00,82.1,80.7,30.11,ENE,64,0.0,0.0,95,0.00,,,0.00,Meteorologica,2013-06-12 16:37:00,
2013-06-12 12:42:00,82.2,80.9,30.11,ENE,64,0.0,0.0,95,0.00,,,0.00,Meteorologica,2013-06-12 16:42:00,
2013-06-12 12:47:00,82.5,81.7,30.11,ENE,64,0.0,0.0,97,0.00,,,0.00,Meteorologica,2013-06-12 16:47:00,
2013-06-12 12:52:00,82.4,81.0,30.11,ENE,64,0.0,0.0,95,0.00,,,0.00,Meteorologica,2013-06-12 16:52:00,
2013-06-12 12:57:00,82.4,81.3,30.10,ENE,64,0.0,0.0,96,0.00,,,0.00,Meteorologica,2013-06-12 16:57:00,
2013-06-12 13:02:00,82.5,81.7,30.10,ENE,64,0.0,0.0,97,0.00,,,0.00,Meteorologica,2013-06-12 17:02:00,
2013-06-12 13:07:00,82.5,81.6,30.10,ENE,64,0.0,0.0,97,0.00,,,0.00,Meteorologica,2013-06-12 17:07:00,
2013-06-12 13:12:00,82.7,81.4,30.10,ENE,64,0.0,0.0,95,0.00,,,0.00,Meteorologica,2013-06-12 17:12:00,
2013-06-12 13:17:00,82.7,81.0,30.10,ENE,64,0.0,0.0,94,0.00,,,0.00,Meteorologica,2013-06-12 17:17:00,
2013-06-12 13:22:00,82.7,80.7,30.10,SW,215,0.0,0.2,93,0.00,,,0.00,Meteorologica,2013-06-12 17:22:00,
2013-06-12 13:27:00,83.0,82.4,30.10,SW,215,0.0,1.1,98,0.00,,,0.00,Meteorologica,2013-06-12 17:27:00,
2013-06-12 13:33:00,82.9,80.7,30.10,SW,215,0.0,0.0,93,0.00,,,0.00,Meteorologica,2013-06-12 17:33:00,
2013-06-12 13:38:00,83.0,80.8,30.10,SW,215,0.0,0.0,93,0.00,,,0.00,Meteorologica,2013-06-12 17:38:00,
2013-06-12 13:43:00,83.2,81.1,30.10,SSE,150,1.4,0.0,93,0.00,,,0.00,Meteorologica,2013-06-12 17:43:00,
2013-06-12 13:48:00,83.3,78.1,30.09,SE,139,0.1,3.1,84,0.00,,,0.00,Meteorologica,2013-06-12 17:48:00,
2013-06-12 13:53:00,83.6,76.4,30.09,West,263,0.5,3.2,78,0.00,,,0.00,Meteorologica,2013-06-12 17:53:00,
2013-06-12 13:58:00,84.2,78.6,30.09,SSW,204,3.0,3.1,83,0.00,,,0.00,Meteorologica,2013-06-12 17:58:00,
2013-06-12 14:03:00,84.5,78.7,30.09,NNE,15,0.1,5.7,82,0.00,,,0.00,Meteorologica,2013-06-12 18:03:00,
2013-06-12 14:08:00,85.0,78.7,30.09,East,79,0.4,2.5,81,0.00,,,0.00,Meteorologica,2013-06-12 18:08:00,
2013-06-12 14:13:00,85.3,78.6,30.08,West,259,1.5,2.6,80,0.00,,,0.00,Meteorologica,2013-06-12 18:13:00,
2013-06-12 14:18:00,85.3,78.0,30.08,WSW,255,0.0,2.9,78,0.00,,,0.00,Meteorologica,2013-06-12 18:18:00,
2013-06-12 14:23:00,85.5,77.9,30.08,WSW,255,0.0,1.7,77,0.00,,,0.00,Meteorologica,2013-06-12 18:23:00,
2013-06-12 14:28:00,85.6,78.1,30.07,WSW,241,1.5,0.0,78,0.00,,,0.00,Meteorologica,2013-06-12 18:28:00,
2013-06-12 14:33:00,86.0,79.1,30.07,WSW,248,0.0,4.4,79,0.00,,,0.00,Meteorologica,2013-06-12 18:33:00,
2013-06-12 14:38:00,86.4,79.9,30.07,WNW,282,1.7,2.8,80,0.00,,,0.00,Meteorologica,2013-06-12 18:38:00,
2013-06-12 14:43:00,87.1,75.6,30.07,WSW,251,3.3,3.5,68,0.00,,,0.00,Meteorologica,2013-06-12 18:43:00,
2013-06-12 14:48:00,87.8,75.5,30.07,WNW,299,1.9,6.9,66,0.00,,,0.00,Meteorologica,2013-06-12 18:48:00,
2013-06-12 14:53:00,88.3,76.1,30.07,SW,236,2.3,4.6,66,0.00,,,0.00,Meteorologica,2013-06-12 18:53:00,
2013-06-12 14:58:00,88.9,74.8,30.07,WSW,253,3.0,5.3,62,0.00,,,0.00,Meteorologica,2013-06-12 18:58:00,
2013-06-12 15:03:00,89.4,75.3,30.06,SSW,213,2.8,6.6,62,0.00,,,0.00,Meteorologica,2013-06-12 19:03:00,
2013-06-12 15:08:00,89.9,74.1,30.06,WSW,256,4.8,8.7,59,0.00,,,0.00,Meteorologica,2013-06-12 19:08:00,
2013-06-12 15:13:00,90.1,75.2,30.06,SW,234,1.6,8.7,61,0.00,,,0.00,Meteorologica,2013-06-12 19:13:00,
2013-06-12 15:18:00,90.2,74.0,30.06,ESE,105,0.4,5.9,58,0.00,,,0.00,Meteorologica,2013-06-12 19:18:00,
2013-06-12 15:23:00,90.8,74.1,30.05,ENE,64,1.5,6.0,57,0.00,,,0.00,Meteorologica,2013-06-12 19:23:00,
2013-06-12 15:28:00,91.0,74.4,30.05,West,279,2.5,5.1,58,0.00,,,0.00,Meteorologica,2013-06-12 19:28:00,
2013-06-12 15:33:00,91.3,73.4,30.05,SSW,204,2.6,6.6,55,0.00,,,0.00,Meteorologica,2013-06-12 19:33:00,
2013-06-12 15:38:00,91.7,73.6,30.05,WNW,295,1.6,6.7,55,0.00,,,0.00,Meteorologica,2013-06-12 19:38:00,
2013-06-12 15:43:00,91.7,73.2,30.05,SW,219,2.7,6.0,54,0.00,,,0.00,Meteorologica,2013-06-12 19:43:00,
2013-06-12 15:48:00,91.9,73.4,30.04,ESE,122,1.0,4.8,54,0.00,,,0.00,Meteorologica,2013-06-12 19:48:00,
2013-06-12 15:53:00,91.8,73.5,30.04,South,178,2.4,5.1,54,0.00,,,0.00,Meteorologica,2013-06-12 19:53:00,
2013-06-12 15:58:00,92.0,73.6,30.04,SW,228,2.9,5.7,54,0.00,,,0.00,Meteorologica,2013-06-12 19:58:00,
2013-06-12 16:03:00,92.1,74.0,30.04,SSE,165,1.8,6.4,55,0.00,,,0.00,Meteorologica,2013-06-12 20:03:00,
2013-06-12 16:08:00,92.3,74.2,30.04,WSW,239,3.7,4.3,55,0.00,,,0.00,Meteorologica,2013-06-12 20:08:00,
2013-06-12 16:13:00,92.2,72.5,30.04,ENE,67,0.3,5.0,52,0.00,,,0.00,Meteorologica,2013-06-12 20:13:00,
2013-06-12 16:18:00,92.2,71.8,30.04,SSE,158,2.2,3.6,51,0.00,,,0.00,Meteorologica,2013-06-12 20:18:00,
2013-06-12 16:23:00,92.2,71.9,30.03,ESE,111,1.1,6.7,51,0.00,,,0.00,Meteorologica,2013-06-12 20:23:00,
2013-06-12 16:28:00,92.1,70.7,30.03,SE,137,2.3,4.3,49,0.00,,,0.00,Meteorologica,2013-06-12 20:28:00,
2013-06-12 16:33:00,92.2,71.9,30.03,SSE,155,0.8,7.1,51,0.00,,,0.00,Meteorologica,2013-06-12 20:33:00,
2013-06-12 16:38:00,92.2,70.5,30.03,SE,127,2.4,4.2,49,0.00,,,0.00,Meteorologica,2013-06-12 20:38:00,
2013-06-12 16:43:00,92.3,71.2,30.03,South,191,3.2,6.4,50,0.00,,,0.00,Meteorologica,2013-06-12 20:43:00,
2013-06-12 16:48:00,92.2,69.6,30.02,NNE,32,2.0,9.5,47,0.00,,,0.00,Meteorologica,2013-06-12 20:48:00,
2013-06-12 16:53:00,92.1,70.7,30.02,SSE,152,1.3,6.2,49,0.00,,,0.00,Meteorologica,2013-06-12 20:53:00,
2013-06-12 16:58:00,92.2,70.8,30.03,NE,49,2.0,4.5,49,0.00,,,0.00,Meteorologica,2013-06-12 20:58:00,
2013-06-12 17:03:00,92.2,69.9,30.02,WSW,247,1.3,4.9,48,0.00,,,0.00,Meteorologica,2013-06-12 21:03:00,
2013-06-12 17:08:00,92.0,69.9,30.02,ESE,111,2.5,7.6,48,0.00,,,0.00,Meteorologica,2013-06-12 21:08:00,
2013-06-12 17:13:00,92.0,69.5,30.02,SE,136,3.3,4.5,46,0.00,,,0.00,Meteorologica,2013-06-12 21:13:00,
2013-06-12 17:18:00,92.0,69.8,30.02,WNW,283,3.0,6.5,48,0.00,,,0.00,Meteorologica,2013-06-12 21:18:00,
2013-06-12 17:23:00,91.9,69.7,30.02,WSW,239,0.2,7.3,48,0.00,,,0.00,Meteorologica,2013-06-12 21:23:00,
2013-06-12 17:28:00,91.5,70.3,30.02,South,171,0.8,4.3,49,0.00,,,0.00,Meteorologica,2013-06-12 21:28:00,
2013-06-12 17:33:00,91.3,69.6,30.02,SE,136,1.9,5.7,48,0.00,,,0.00,Meteorologica,2013-06-12 21:33:00,
2013-06-12 17:38:00,91.2,70.7,30.02,SSE,159,1.0,3.2,50,0.00,,,0.00,Meteorologica,2013-06-12 21:38:00,
2013-06-12 17:43:00,90.9,70.9,30.01,WSW,257,1.5,4.8,51,0.00,,,0.00,Meteorologica,2013-06-12 21:43:00,
2013-06-12 17:48:00,90.8,70.6,30.01,SSW,208,1.4,3.3,51,0.00,,,0.00,Meteorologica,2013-06-12 21:48:00,
2013-06-12 17:53:00,90.5,71.5,30.01,East,79,2.2,6.7,53,0.00,,,0.00,Meteorologica,2013-06-12 21:53:00,
2013-06-12 17:58:00,90.2,70.6,30.01,SE,133,1.1,4.5,52,0.00,,,0.00,Meteorologica,2013-06-12 21:58:00,
2013-06-12 18:03:00,89.8,71.3,30.01,West,279,0.0,3.7,54,0.00,,,0.00,Meteorologica,2013-06-12 22:03:00,
2013-06-12 18:08:00,89.0,70.9,30.01,ESE,104,0.8,5.3,54,0.00,,,0.00,Meteorologica,2013-06-12 22:08:00,
2013-06-12 18:13:00,88.7,71.7,30.00,ESE,104,0.0,2.6,56,0.00,,,0.00,Meteorologica,2013-06-12 22:13:00,
2013-06-12 18:19:00,88.2,71.7,30.00,ENE,62,0.0,2.5,58,0.00,,,0.00,Meteorologica,2013-06-12 22:19:00,
2013-06-12 18:24:00,88.2,72.7,30.00,ENE,62,0.0,0.0,59,0.00,,,0.00,Meteorologica,2013-06-12 22:24:00,
2013-06-12 18:29:00,88.1,73.3,30.00,East,97,0.2,1.7,61,0.00,,,0.00,Meteorologica,2013-06-12 22:29:00,
2013-06-12 18:34:00,87.7,72.6,30.00,South,190,1.7,3.5,60,0.00,,,0.00,Meteorologica,2013-06-12 22:34:00,
2013-06-12 18:39:00,87.6,72.8,30.00,South,190,0.0,3.5,61,0.00,,,0.00,Meteorologica,2013-06-12 22:39:00,
2013-06-12 18:44:00,87.4,73.2,30.00,East,79,0.7,1.4,62,0.00,,,0.00,Meteorologica,2013-06-12 22:44:00,
2013-06-12 18:49:00,87.3,72.5,30.00,NE,50,1.2,2.7,61,0.00,,,0.00,Meteorologica,2013-06-12 22:49:00,
2013-06-12 18:54:00,87.2,72.7,30.00,SW,232,0.9,3.9,61,0.00,,,0.00,Meteorologica,2013-06-12 22:54:00,
2013-06-12 18:59:00,87.2,73.1,30.00,SW,223,0.0,3.0,62,0.00,,,0.00,Meteorologica,2013-06-12 22:59:00,
2013-06-12 19:04:00,87.0,72.6,29.99,WSW,239,0.0,3.5,61,0.00,,,0.00,Meteorologica,2013-06-12 23:04:00,
2013-06-12 19:09:00,86.9,73.1,29.99,WSW,239,0.0,0.0,63,0.00,,,0.00,Meteorologica,2013-06-12 23:09:00,
2013-06-12 19:14:00,86.8,73.7,29.99,WSW,239,0.0,0.0,64,0.00,,,0.00,Meteorologica,2013-06-12 23:14:00,
2013-06-12 19:19:00,86.7,74.4,29.99,WSW,239,0.0,0.0,66,0.00,,,0.00,Meteorologica,2013-06-12 23:19:00,
2013-06-12 19:24:00,86.5,74.2,29.99,WSW,251,0.0,1.6,66,0.00,,,0.00,Meteorologica,2013-06-12 23:24:00,
2013-06-12 19:29:00,86.4,74.5,29.99,WSW,251,0.0,0.0,67,0.00,,,0.00,Meteorologica,2013-06-12 23:29:00,
2013-06-12 19:34:00,86.1,74.6,29.99,WSW,251,0.0,0.0,68,0.00,,,0.00,Meteorologica,2013-06-12 23:34:00,
2013-06-12 19:39:00,85.9,74.7,29.99,WSW,251,0.0,0.0,68,0.00,,,0.00,Meteorologica,2013-06-12 23:39:00,
2013-06-12 19:44:00,85.8,74.5,29.99,WSW,251,0.0,0.0,68,0.00,,,0.00,Meteorologica,2013-06-12 23:44:00,
2013-06-12 19:49:00,85.5,74.1,29.99,WSW,241,0.3,0.9,68,0.00,,,0.00,Meteorologica,2013-06-12 23:49:00,
2013-06-12 19:54:00,85.4,74.4,29.99,East,93,0.1,3.0,69,0.00,,,0.00,Meteorologica,2013-06-12 23:54:00,
2013-06-12 19:59:00,85.3,74.7,29.99,SSW,201,0.2,1.9,70,0.00,,,0.00,Meteorologica,2013-06-12 23:59:00,
2013-06-12 20:04:00,85.2,74.5,29.99,ENE,76,0.8,1.6,69,0.00,,,0.00,Meteorologica,2013-06-13 00:04:00,
2013-06-12 20:09:00,85.2,74.6,29.99,ENE,76,0.0,0.0,70,0.00,,,0.00,Meteorologica,2013-06-13 00:09:00,
2013-06-12 20:14:00,84.8,74.0,29.99,ENE,76,0.0,0.0,69,0.00,,,0.00,Meteorologica,2013-06-13 00:14:00,
2013-06-12 20:19:00,84.5,73.7,29.99,South,177,0.7,1.1,69,0.00,,,0.00,Meteorologica,2013-06-13 00:19:00,
2013-06-12 20:24:00,84.5,73.7,29.99,NE,35,0.2,3.3,69,0.00,,,0.00,Meteorologica,2013-06-13 00:24:00,
2013-06-12 21:00:00,83.4,73.4,30.00,South,187,0.7,2.0,71,0.00,,,0.00,Meteorologica,2013-06-13 01:00:00,
2013-06-12 21:05:00,83.1,73.4,30.00,SSE,155,0.0,2.1,72,0.00,,,0.00,Meteorologica,2013-06-13 01:05:00,
2013-06-12 21:10:00,82.9,73.4,29.99,SSE,166,0.0,2.0,72,0.00,,,0.00,Meteorologica,2013-06-13 01:10:00,
2013-06-12 21:15:00,82.8,73.8,30.00,SSE,166,0.0,0.0,73,0.00,,,0.00,Meteorologica,2013-06-13 01:15:00,
2013-06-12 21:20:00,82.6,73.7,29.99,SSE,166,0.0,0.0,74,0.00,,,0.00,Meteorologica,2013-06-13 01:20:00,
2013-06-12 21:25:00,82.3,74.1,29.99,SSE,156,0.0,0.8,75,0.00,,,0.00,Meteorologica,2013-06-13 01:25:00,
2013-06-12 21:30:00,82.0,74.2,29.99,SSE,156,0.0,0.0,76,0.00,,,0.00,Meteorologica,2013-06-13 01:30:00,
2013-06-12 21:35:00,81.8,74.1,29.99,East,93,0.0,1.8,77,0.00,,,0.00,Meteorologica,2013-06-13 01:35:00,
2013-06-12 21:40:00,81.7,74.8,30.00,SSW,203,0.1,0.8,79,0.00,,,0.00,Meteorologica,2013-06-13 01:40:00,
2013-06-12 21:45:00,81.4,75.1,29.99,South,191,0.0,0.7,80,0.00,,,0.00,Meteorologica,2013-06-13 01:45:00,
2013-06-12 21:50:00,81.2,75.0,29.99,South,186,0.5,2.3,81,0.00,,,0.00,Meteorologica,2013-06-13 01:50:00,
2013-06-12 21:56:00,81.1,75.2,29.99,SE,146,0.2,3.0,82,0.00,,,0.00,Meteorologica,2013-06-13 01:56:00,
2013-06-12 22:01:00,81.0,75.1,29.99,SSW,196,0.0,1.9,82,0.00,,,0.00,Meteorologica,2013-06-13 02:01:00,
2013-06-12 22:06:00,80.8,75.0,29.99,SSW,196,0.2,2.0,82,0.00,,,0.00,Meteorologica,2013-06-13 02:06:00,
2013-06-12 22:11:00,80.7,75.1,29.99,West,262,0.8,3.6,83,0.00,,,0.00,Meteorologica,2013-06-13 02:11:00,
2013-06-12 22:16:00,80.7,75.5,29.99,WSW,255,0.0,1.9,84,0.00,,,0.00,Meteorologica,2013-06-13 02:16:00,
2013-06-12 22:21:00,80.6,75.7,29.99,SW,234,0.0,2.5,84,0.00,,,0.00,Meteorologica,2013-06-13 02:21:00,
2013-06-12 22:26:00,80.3,76.0,29.99,West,264,0.5,0.0,86,0.00,,,0.00,Meteorologica,2013-06-13 02:26:00,
2013-06-12 22:31:00,80.4,77.1,29.99,WSW,245,0.0,1.7,89,0.00,,,0.00,Meteorologica,2013-06-13 02:31:00,
2013-06-12 22:36:00,80.1,77.3,29.99,SSW,207,0.0,4.0,91,0.00,,,0.00,Meteorologica,2013-06-13 02:36:00,
2013-06-12 22:41:00,79.9,77.6,29.99,SSW,207,0.0,0.0,92,0.00,,,0.00,Meteorologica,2013-06-13 02:41:00,
2013-06-12 22:46:00,79.9,78.0,29.99,SSW,194,0.0,0.0,94,0.00,,,0.00,Meteorologica,2013-06-13 02:46:00,
2013-06-12 22:51:00,79.4,77.8,29.99,East,88,0.0,1.9,95,0.00,,,0.00,Meteorologica,2013-06-13 02:51:00,
2013-06-12 22:56:00,79.2,77.9,29.99,East,88,0.0,0.9,96,0.00,,,0.00,Meteorologica,2013-06-13 02:56:00,
2013-06-12 23:01:00,79.2,78.1,29.99,SSW,196,0.0,0.0,96,0.00,,,0.00,Meteorologica,2013-06-13 03:01:00,
2013-06-12 23:07:00,79.1,77.9,29.99,SW,231,0.1,1.9,96,0.00,,,0.00,Meteorologica,2013-06-13 03:07:00,
2013-06-12 23:12:00,78.9,78.0,29.99,SSW,211,0.0,1.0,97,0.00,,,0.00,Meteorologica,2013-06-13 03:12:00,
2013-06-12 23:17:00,78.9,77.9,30.00,SSW,198,1.0,0.0,96,0.00,,,0.00,Meteorologica,2013-06-13 03:17:00,
2013-06-12 23:22:00,78.9,78.0,29.99,South,177,0.5,2.3,97,0.00,,,0.00,Meteorologica,2013-06-13 03:22:00,
2013-06-12 23:27:00,78.7,77.8,29.99,South,183,2.4,2.5,97,0.00,,,0.00,Meteorologica,2013-06-13 03:27:00,
2013-06-12 23:32:00,78.5,77.6,29.99,South,186,1.5,3.8,97,0.00,,,0.00,Meteorologica,2013-06-13 03:32:00,
2013-06-12 23:37:00,78.4,77.3,29.99,South,189,2.1,3.0,96,0.00,,,0.00,Meteorologica,2013-06-13 03:37:00,
2013-06-12 23:42:00,78.4,77.2,29.99,SSW,208,1.8,4.8,96,0.00,,,0.00,Meteorologica,2013-06-13 03:42:00,
2013-06-12 23:47:00,78.4,77.0,29.99,SW,215,2.0,5.5,95,0.00,,,0.00,Meteorologica,2013-06-13 03:47:00,
2013-06-12 23:52:00,78.4,76.7,29.99,SSW,203,3.8,5.9,94,0.00,,,0.00,Meteorologica,2013-06-13 03:52:00,
2013-06-12 23:57:00,78.5,76.6,29.99,SW,224,3.4,6.6,93,0.00,,,0.00,Meteorologica,2013-06-13 03:57:00,